Terminal Aerodrome Forecast
Issued by NWS

Home | Current Version | Previous Version | Text Only | Print | Product List | Glossary On
Versions: 1 2 3 4 5 6 7 8 9 10 11 12 13 14 15 16 17 18 19 20 21 22 23 24
000
FTUS45 KBOU 171500 AAA
TAFAPA
TAF AMD
KAPA 171500Z 1715/1812 23016G24KT P6SM SCT220
     FM172000 28020G30KT P6SM FEW120 BKN220
     FM180000 32018G25KT P6SM SCT080 BKN120
     FM180300 36018G30KT P6SM BKN080
      TEMPO 1803/1807 -SHRASN SCT020 OVC050
     FM181000 32018KT P6SM SCT090=

USA.gov is the U.S. government's official web portal to all federal, state and local government web resources and services.